createdAt,value
2019-05-28T00:00:57.297Z,5.97
2019-05-28T00:03:25.939Z,7.78
2019-05-28T00:05:54.641Z,7.30
2019-05-28T00:08:23.362Z,6.40
2019-05-28T00:10:52.010Z,6.95
2019-05-28T00:13:20.632Z,5.62
2019-05-28T00:15:49.262Z,5.53
2019-05-28T00:18:17.916Z,5.70
2019-05-28T00:20:46.601Z,7.20
2019-05-28T00:23:15.248Z,6.97
2019-05-28T00:25:43.905Z,8.58
2019-05-28T00:28:12.625Z,5.75
2019-05-28T00:30:41.645Z,6.62
2019-05-28T00:33:10.371Z,7.47
2019-05-28T00:35:38.959Z,5.55
2019-05-28T00:38:07.532Z,7.20
2019-05-28T00:40:36.255Z,7.05
2019-05-28T00:43:05.389Z,5.58
2019-05-28T00:45:34.210Z,6.70
2019-05-28T00:48:02.855Z,5.47
2019-05-28T00:50:31.544Z,5.53
2019-05-28T00:53:00.255Z,8.63
2019-05-28T00:55:28.907Z,6.30
2019-05-28T00:57:58.939Z,7.80
2019-05-28T01:00:48.068Z,9.50
2019-05-28T01:03:16.970Z,6.65
2019-05-28T01:05:46.431Z,5.85
2019-05-28T01:08:15.478Z,6.05
2019-05-28T01:10:44.874Z,7.70
2019-05-28T01:13:13.667Z,5.97
2019-05-28T01:15:42.459Z,7.22
2019-05-28T01:18:11.276Z,5.15
2019-05-28T01:20:39.923Z,5.45
2019-05-28T01:23:08.962Z,8.55
2019-05-28T01:25:37.971Z,5.92
2019-05-28T01:28:06.660Z,5.47
2019-05-28T01:30:35.324Z,5.92
2019-05-28T01:33:04.102Z,6.25
2019-05-28T01:35:32.888Z,5.83
2019-05-28T01:38:01.552Z,7.37
2019-05-28T01:40:30.208Z,6.62
2019-05-28T01:42:58.848Z,6.72
2019-05-28T01:45:27.483Z,6.55
2019-05-28T01:47:57.694Z,6.20
2019-05-28T01:50:26.435Z,12.20
2019-05-28T01:52:55.095Z,13.68
2019-05-28T01:55:23.712Z,22.90
2019-05-28T01:57:52.292Z,27.20
2019-05-28T02:00:21.251Z,30.62
2019-05-28T02:02:49.984Z,30.68
2019-05-28T02:05:18.720Z,28.02
2019-05-28T02:07:47.361Z,28.20
2019-05-28T02:10:16.153Z,25.23
2019-05-28T02:12:44.806Z,26.25
2019-05-28T02:15:13.956Z,25.17
2019-05-28T02:17:42.665Z,27.02
2019-05-28T02:20:11.612Z,25.25
2019-05-28T02:22:40.266Z,22.62
2019-05-28T02:25:09.381Z,20.97
2019-05-28T02:27:38.035Z,19.73
2019-05-28T02:30:15.100Z,19.50
2019-05-28T02:32:43.673Z,18.92
2019-05-28T02:35:13.036Z,19.42
2019-05-28T02:37:41.745Z,20.12
2019-05-28T02:40:10.970Z,21.95
2019-05-28T02:42:39.615Z,20.05
2019-05-28T02:45:10.083Z,19.73
2019-05-28T02:47:38.728Z,19.87
2019-05-28T02:50:09.183Z,19.60
2019-05-28T02:52:37.975Z,16.90
2019-05-28T02:55:10.068Z,16.77
2019-05-28T02:57:40.631Z,14.18
2019-05-28T03:00:12.020Z,19.45
2019-05-28T03:02:43.111Z,19.85
2019-05-28T03:05:11.863Z,20.30
2019-05-28T03:07:43.978Z,18.35
2019-05-28T03:10:12.864Z,14.55
2019-05-28T03:12:41.456Z,17.62
2019-05-28T03:15:10.471Z,15.25
2019-05-28T03:17:40.807Z,15.75
2019-05-28T03:20:09.715Z,14.40
2019-05-28T03:22:39.733Z,13.32
2019-05-28T03:25:08.685Z,11.70
2019-05-28T03:27:37.331Z,11.95
2019-05-28T03:30:07.438Z,12.13
2019-05-28T03:32:36.549Z,20.00
2019-05-28T03:35:06.977Z,19.12
2019-05-28T03:37:37.371Z,15.63
2019-05-28T03:40:08.022Z,17.20
2019-05-28T03:42:36.879Z,18.67
2019-05-28T03:45:08.499Z,16.45
2019-05-28T03:47:37.169Z,16.80
2019-05-28T03:50:07.230Z,12.40
2019-05-28T03:52:36.026Z,15.75
2019-05-28T03:55:07.538Z,13.32
2019-05-28T03:57:36.121Z,11.83
2019-05-28T04:00:06.212Z,23.50
2019-05-28T04:02:34.990Z,26.87
2019-05-28T04:05:03.656Z,18.15
2019-05-28T04:07:32.372Z,14.33
2019-05-28T04:10:01.022Z,14.58
2019-05-28T04:12:29.678Z,15.70
2019-05-28T04:14:58.403Z,16.65
2019-05-28T04:17:27.054Z,14.90
2019-05-28T04:19:55.709Z,19.00
2019-05-28T04:22:24.416Z,11.97
2019-05-28T04:24:53.085Z,13.72
2019-05-28T04:27:21.742Z,14.98
2019-05-28T04:29:50.448Z,15.18
2019-05-28T04:32:19.198Z,13.20
2019-05-28T04:34:47.864Z,15.98
2019-05-28T04:37:16.559Z,17.85
2019-05-28T04:39:45.065Z,15.00
2019-05-28T04:42:13.745Z,13.80
2019-05-28T04:44:42.433Z,15.08
2019-05-28T04:47:11.084Z,13.50
2019-05-28T04:49:39.740Z,12.80
2019-05-28T04:52:08.670Z,13.75
2019-05-28T04:54:37.340Z,18.00
2019-05-28T04:57:05.938Z,16.20
2019-05-28T04:59:34.614Z,12.80
2019-05-28T05:02:03.475Z,15.35
2019-05-28T05:04:32.143Z,15.28
2019-05-28T05:07:00.846Z,16.82
2019-05-28T05:09:29.498Z,12.95
2019-05-28T05:11:58.243Z,19.30
2019-05-28T05:14:26.954Z,14.43
2019-05-28T05:16:55.729Z,10.88
2019-05-28T05:19:24.359Z,10.20
2019-05-28T05:21:53.288Z,10.85
2019-05-28T05:24:21.933Z,9.83
2019-05-28T05:26:52.952Z,13.50
2019-05-28T05:29:21.189Z,13.93
2019-05-28T05:31:51.487Z,12.25
2019-05-28T05:34:20.087Z,11.60
2019-05-28T05:36:48.851Z,11.25
2019-05-28T05:39:17.537Z,11.53
2019-05-28T05:41:46.410Z,14.18
2019-05-28T05:44:15.168Z,11.60
2019-05-28T05:46:43.823Z,10.55
2019-05-28T05:49:12.479Z,11.03
2019-05-28T05:51:41.185Z,13.80
2019-05-28T05:54:14.065Z,14.53
2019-05-28T05:56:42.736Z,11.28
2019-05-28T05:59:11.413Z,15.28
2019-05-28T06:01:40.021Z,12.47
2019-05-28T06:04:08.749Z,14.95
2019-05-28T06:06:37.401Z,17.23
2019-05-28T06:09:07.933Z,17.40
2019-05-28T06:11:36.740Z,14.78
2019-05-28T06:14:05.691Z,13.18
2019-05-28T06:16:34.458Z,12.98
2019-05-28T06:19:03.256Z,15.65
2019-05-28T06:21:32.089Z,13.48
2019-05-28T06:24:00.678Z,30.30
2019-05-28T06:26:29.364Z,19.92
2019-05-28T06:28:57.985Z,12.60
2019-05-28T06:31:26.729Z,15.85
2019-05-28T06:33:57.411Z,13.93
2019-05-28T06:36:25.820Z,14.53
2019-05-28T06:38:54.540Z,14.95
2019-05-28T06:41:23.334Z,14.93
2019-05-28T06:43:52.055Z,14.58
2019-05-28T06:46:20.737Z,15.90
2019-05-28T06:48:49.680Z,16.65
2019-05-28T06:51:18.420Z,14.90
2019-05-28T06:53:46.993Z,20.65
2019-05-28T06:56:15.904Z,17.55
2019-05-28T06:58:44.555Z,11.90
2019-05-28T07:01:13.377Z,14.90
2019-05-28T07:03:43.137Z,10.25
2019-05-28T07:06:11.802Z,11.93
2019-05-28T07:08:40.490Z,8.85
2019-05-28T07:11:09.194Z,6.97
2019-05-28T07:13:37.890Z,5.17
2019-05-28T07:16:06.563Z,5.03
2019-05-28T07:18:35.345Z,5.67
2019-05-28T07:21:04.130Z,4.78
2019-05-28T07:23:32.957Z,3.65
2019-05-28T07:26:01.700Z,5.00
2019-05-28T07:28:30.364Z,4.85
2019-05-28T07:30:59.086Z,5.20
2019-05-28T07:33:27.782Z,3.80
2019-05-28T07:35:56.474Z,4.12
2019-05-28T07:38:25.070Z,4.53
2019-05-28T07:40:53.762Z,5.55
2019-05-28T07:43:22.474Z,4.05
2019-05-28T07:45:51.116Z,5.62
2019-05-28T07:48:19.823Z,6.70
2019-05-28T07:50:48.475Z,6.92
2019-05-28T07:53:19.732Z,5.85
2019-05-28T07:55:48.389Z,4.92
2019-05-28T07:58:17.140Z,4.42
2019-05-28T08:00:46.031Z,4.28
2019-05-28T08:03:14.871Z,3.72
2019-05-28T08:05:43.533Z,6.67
2019-05-28T08:08:15.314Z,4.17
2019-05-28T08:10:44.014Z,3.87
2019-05-28T08:13:12.735Z,3.87
2019-05-28T08:15:41.386Z,5.05
2019-05-28T08:18:10.139Z,4.08
2019-05-28T08:20:38.787Z,7.55
2019-05-28T08:23:07.751Z,4.08
2019-05-28T08:25:46.790Z,4.70
2019-05-28T08:28:19.433Z,4.72
2019-05-28T08:30:37.303Z,4.17
2019-05-28T08:33:05.998Z,5.50
2019-05-28T08:35:34.642Z,4.03
2019-05-28T08:38:03.368Z,4.12
2019-05-28T08:40:32.316Z,6.47
2019-05-28T08:43:01.314Z,6.25
2019-05-28T08:45:29.927Z,7.90
2019-05-28T08:47:59.591Z,4.17
2019-05-28T08:50:34.291Z,4.05
2019-05-28T08:53:03.517Z,3.90
2019-05-28T08:55:32.244Z,6.62
2019-05-28T08:58:02.510Z,4.53
2019-05-28T09:00:40.346Z,7.90
2019-05-28T09:03:09.535Z,6.83
2019-05-28T09:05:38.277Z,3.70
2019-05-28T09:08:07.307Z,4.40
2019-05-28T09:10:36.341Z,12.68
2019-05-28T09:13:08.310Z,3.50
2019-05-28T09:15:37.057Z,4.12
2019-05-28T09:18:07.479Z,6.50
2019-05-28T09:20:36.257Z,4.42
2019-05-28T09:23:14.872Z,4.22
2019-05-28T09:25:43.525Z,6.83
2019-05-28T09:28:28.183Z,4.22
2019-05-28T09:30:42.702Z,4.30
2019-05-28T09:33:20.222Z,5.30
2019-05-28T09:36:06.275Z,4.65
2019-05-28T09:38:19.379Z,4.05
2019-05-28T09:40:51.485Z,3.60
2019-05-28T09:43:20.347Z,3.40
2019-05-28T09:45:49.111Z,4.05
2019-05-28T09:48:17.978Z,4.00
2019-05-28T09:50:46.665Z,7.00
2019-05-28T09:53:15.342Z,3.55
2019-05-28T09:55:44.059Z,5.22
2019-05-28T09:58:12.875Z,5.92
2019-05-28T10:00:56.724Z,4.62
2019-05-28T10:03:12.184Z,4.40
2019-05-28T10:05:41.144Z,4.25
2019-05-28T10:08:12.715Z,3.77
2019-05-28T10:10:41.378Z,4.65
2019-05-28T10:13:10.277Z,3.30
2019-05-28T10:15:38.840Z,4.58
2019-05-28T10:18:07.595Z,3.62
2019-05-28T10:20:38.160Z,3.50
2019-05-28T10:23:06.743Z,5.55
2019-05-28T10:25:35.387Z,6.67
2019-05-28T10:28:05.408Z,3.58
2019-05-28T10:30:34.050Z,5.70
2019-05-28T10:33:02.719Z,7.33
2019-05-28T10:35:31.517Z,6.58
2019-05-28T10:38:00.183Z,4.65
2019-05-28T10:40:28.830Z,4.08
2019-05-28T10:42:57.536Z,3.50
2019-05-28T10:45:26.366Z,3.27
2019-05-28T10:47:55.022Z,4.55
2019-05-28T10:50:24.023Z,5.42
2019-05-28T10:52:52.675Z,3.83
2019-05-28T10:55:21.453Z,4.87
2019-05-28T10:57:50.242Z,3.95
2019-05-28T11:00:19.664Z,3.52
2019-05-28T11:02:48.341Z,4.05
2019-05-28T11:05:17.632Z,5.22
2019-05-28T11:07:46.301Z,5.10
2019-05-28T11:10:23.685Z,4.03
2019-05-28T11:12:46.468Z,7.80
2019-05-28T11:15:17.226Z,5.78
2019-05-28T11:17:45.917Z,5.03
2019-05-28T11:20:15.933Z,3.90
2019-05-28T11:22:44.657Z,4.78
2019-05-28T11:25:14.979Z,6.55
2019-05-28T11:27:43.794Z,4.25
2019-05-28T11:30:14.233Z,3.30
2019-05-28T11:32:42.950Z,4.47
2019-05-28T11:35:14.734Z,3.27
2019-05-28T11:37:43.374Z,6.15
2019-05-28T11:40:12.717Z,6.58
2019-05-28T11:42:41.418Z,6.97
2019-05-28T11:45:13.830Z,3.42
2019-05-28T11:47:42.334Z,4.37
2019-05-28T11:50:12.877Z,4.10
2019-05-28T11:52:41.555Z,6.45
2019-05-28T11:55:15.170Z,10.93
2019-05-28T11:57:44.033Z,5.58
2019-05-28T12:00:13.710Z,7.72
2019-05-28T12:02:42.491Z,7.62
2019-05-28T12:05:13.052Z,3.65
2019-05-28T12:07:41.706Z,4.87
2019-05-28T12:10:11.012Z,4.45
2019-05-28T12:12:39.838Z,7.25
2019-05-28T12:15:10.849Z,4.83
2019-05-28T12:17:43.579Z,6.85
2019-05-28T12:20:11.554Z,6.53
2019-05-28T12:22:40.747Z,4.55
2019-05-28T12:25:10.280Z,4.10
2019-05-28T12:27:38.983Z,4.97
2019-05-28T12:30:08.842Z,6.55
2019-05-28T12:32:37.504Z,3.02
2019-05-28T12:35:25.893Z,3.77
2019-05-28T12:37:48.022Z,3.77
2019-05-28T12:40:09.225Z,4.45
2019-05-28T12:42:37.931Z,4.42
2019-05-28T12:45:13.715Z,4.70
2019-05-28T12:47:42.379Z,5.17
2019-05-28T12:50:19.991Z,5.72
2019-05-28T12:52:47.008Z,5.33
2019-05-28T12:55:15.373Z,6.05
2019-05-28T12:57:44.054Z,7.03
2019-05-28T13:00:14.070Z,5.78
2019-05-28T13:02:43.335Z,9.63
2019-05-28T13:05:14.583Z,4.78
2019-05-28T13:07:43.317Z,6.35
2019-05-28T13:10:12.318Z,9.10
2019-05-28T13:12:40.948Z,9.70
2019-05-28T13:15:12.421Z,5.42
2019-05-28T13:17:41.098Z,3.40
2019-05-28T13:20:10.899Z,4.78
2019-05-28T13:22:40.091Z,9.38
2019-05-28T13:25:09.260Z,5.58
2019-05-28T13:27:37.919Z,10.48
2019-05-28T13:30:09.976Z,6.25
2019-05-28T13:32:38.695Z,4.87
2019-05-28T13:35:08.619Z,6.95
2019-05-28T13:37:37.392Z,6.17
2019-05-28T13:40:08.423Z,6.47
2019-05-28T13:42:37.171Z,7.00
2019-05-28T13:45:07.569Z,7.85
2019-05-28T13:47:36.211Z,5.75
2019-05-28T13:50:07.921Z,6.47
2019-05-28T13:52:36.837Z,5.75
2019-05-28T13:55:10.387Z,9.00
2019-05-28T13:57:39.948Z,4.12
2019-05-28T14:00:13.353Z,6.28
2019-05-28T14:02:46.014Z,7.72
2019-05-28T14:05:12.956Z,4.42
2019-05-28T14:07:42.233Z,7.90
2019-05-28T14:10:14.278Z,9.48
2019-05-28T14:12:42.994Z,9.75
2019-05-28T14:15:12.247Z,3.98
2019-05-28T14:17:40.901Z,9.23
2019-05-28T14:20:11.087Z,6.22
2019-05-28T14:22:39.794Z,4.83
2019-05-28T14:25:09.749Z,8.20
2019-05-28T14:27:38.489Z,6.28
2019-05-28T14:30:12.478Z,8.18
2019-05-28T14:32:41.293Z,7.70
2019-05-28T14:35:10.333Z,8.50
2019-05-28T14:37:38.997Z,7.15
2019-05-28T14:40:08.299Z,6.35
2019-05-28T14:42:36.933Z,8.28
2019-05-28T14:45:12.150Z,6.25
2019-05-28T14:47:40.833Z,6.22
2019-05-28T14:50:11.097Z,9.55
2019-05-28T14:52:40.697Z,5.22
2019-05-28T14:55:09.896Z,5.45
2019-05-28T14:57:38.894Z,4.58
2019-05-28T15:00:09.559Z,8.23
2019-05-28T15:02:38.221Z,9.48
2019-05-28T15:05:08.614Z,6.62
2019-05-28T15:07:38.349Z,6.78
2019-05-28T15:10:08.694Z,6.95
2019-05-28T15:12:37.482Z,8.83
2019-05-28T15:15:09.993Z,7.87
2019-05-28T15:17:39.075Z,8.80
2019-05-28T15:20:08.881Z,8.03
2019-05-28T15:22:37.847Z,8.93
2019-05-28T15:25:07.850Z,6.92
2019-05-28T15:27:36.489Z,8.65
2019-05-28T15:30:09.942Z,6.92
2019-05-28T15:32:38.805Z,6.50
2019-05-28T15:35:08.251Z,7.80
2019-05-28T15:37:36.926Z,5.08
2019-05-28T15:40:07.459Z,5.90
2019-05-28T15:42:36.227Z,5.60
2019-05-28T15:45:07.261Z,10.35
2019-05-28T15:47:36.007Z,8.68
2019-05-28T15:50:07.411Z,7.90
2019-05-28T15:52:36.214Z,8.38
2019-05-28T15:55:06.986Z,6.78
2019-05-28T15:57:35.749Z,8.23
2019-05-28T16:00:16.382Z,6.87
2019-05-28T16:02:45.135Z,6.03
2019-05-28T16:05:13.884Z,9.08
2019-05-28T16:07:42.574Z,7.28
2019-05-28T16:10:11.362Z,7.37
2019-05-28T16:12:40.170Z,9.98
2019-05-28T16:15:10.846Z,7.08
2019-05-28T16:17:39.482Z,8.58
2019-05-28T16:20:09.132Z,6.30
2019-05-28T16:22:37.838Z,6.72
2019-05-28T16:25:08.449Z,9.08
2019-05-28T16:27:37.098Z,10.25
2019-05-28T16:30:10.266Z,9.40
2019-05-28T16:32:39.242Z,10.50
2019-05-28T16:35:07.990Z,9.00
2019-05-28T16:37:37.108Z,6.40
2019-05-28T16:40:15.859Z,7.62
2019-05-28T16:42:38.988Z,6.87
2019-05-28T16:45:08.365Z,6.90
2019-05-28T16:47:36.994Z,6.33
2019-05-28T16:50:06.942Z,15.03
2019-05-28T16:52:35.634Z,8.68
2019-05-28T16:55:08.361Z,11.05
2019-05-28T16:57:37.192Z,8.25
2019-05-28T17:00:08.859Z,9.78
2019-05-28T17:02:37.561Z,7.37
2019-05-28T17:05:08.009Z,9.15
2019-05-28T17:07:36.811Z,15.75
2019-05-28T17:10:08.620Z,9.50
2019-05-28T17:12:37.661Z,8.23
2019-05-28T17:15:07.107Z,8.48
2019-05-28T17:17:35.843Z,9.55
2019-05-28T17:20:06.957Z,11.50
2019-05-28T17:22:35.637Z,6.55
2019-05-28T17:25:10.823Z,7.12
2019-05-28T17:27:37.026Z,8.38
2019-05-28T17:30:18.812Z,7.03
2019-05-28T17:32:37.549Z,6.40
2019-05-28T17:35:10.671Z,8.20
2019-05-28T17:37:39.550Z,5.87
2019-05-28T17:40:08.644Z,7.10
2019-05-28T17:42:37.285Z,11.78
2019-05-28T17:45:06.528Z,9.18
2019-05-28T17:47:43.192Z,6.47
2019-05-28T17:50:07.269Z,7.58
2019-05-28T17:52:36.099Z,7.95
2019-05-28T17:55:06.797Z,7.47
2019-05-28T17:57:35.634Z,8.60
2019-05-28T18:00:06.050Z,7.70
2019-05-28T18:02:34.876Z,8.05
2019-05-28T18:05:04.025Z,7.42
2019-05-28T18:07:32.734Z,7.55
2019-05-28T18:10:01.420Z,8.43
2019-05-28T18:12:30.130Z,9.38
2019-05-28T18:14:58.774Z,6.67
2019-05-28T18:17:27.463Z,8.50
2019-05-28T18:19:56.038Z,8.05
2019-05-28T18:22:24.979Z,8.50
2019-05-28T18:24:53.578Z,7.00
2019-05-28T18:27:22.231Z,7.22
2019-05-28T18:29:50.919Z,6.37
2019-05-28T18:32:19.491Z,7.60
2019-05-28T18:34:48.322Z,6.83
2019-05-28T18:37:16.988Z,7.15
2019-05-28T18:39:45.628Z,8.78
2019-05-28T18:42:14.384Z,8.10
2019-05-28T18:44:43.096Z,9.00
2019-05-28T18:47:11.736Z,7.53
2019-05-28T18:49:40.435Z,9.18
2019-05-28T18:52:09.236Z,11.93
2019-05-28T18:54:37.894Z,10.40
2019-05-28T18:57:06.537Z,8.98
2019-05-28T18:59:35.627Z,9.35
2019-05-28T19:02:04.506Z,7.78
2019-05-28T19:04:33.271Z,7.95
2019-05-28T19:07:03.553Z,8.00
2019-05-28T19:09:34.196Z,10.88
2019-05-28T19:12:05.623Z,9.20
2019-05-28T19:17:25.656Z,9.10
2019-05-28T19:19:54.730Z,9.23
2019-05-28T19:22:26.937Z,9.63
2019-05-28T19:25:01.017Z,10.23
2019-05-28T19:27:35.904Z,8.80
2019-05-28T19:30:11.965Z,8.40
2019-05-28T19:32:43.289Z,7.62
2019-05-28T19:35:14.583Z,14.50
2019-05-28T19:37:45.217Z,8.60
2019-05-28T19:40:18.544Z,8.00
2019-05-28T19:42:50.530Z,9.95
2019-05-28T19:45:22.238Z,7.75
2019-05-28T19:47:53.164Z,8.25
2019-05-28T19:50:23.979Z,9.33
2019-05-28T19:52:57.557Z,8.45
2019-05-28T19:55:27.796Z,9.08
2019-05-28T19:57:56.455Z,11.65
2019-05-28T20:00:25.633Z,8.70
2019-05-28T20:02:54.332Z,9.55
2019-05-28T20:05:22.919Z,10.45
2019-05-28T20:07:51.592Z,8.68
2019-05-28T20:10:20.218Z,10.20
2019-05-28T20:12:48.870Z,9.63
2019-05-28T20:15:20.975Z,8.18
2019-05-28T20:17:50.326Z,12.25
2019-05-28T20:20:19.464Z,11.18
2019-05-28T20:22:48.141Z,10.82
2019-05-28T20:25:16.991Z,8.38
2019-05-28T20:27:45.833Z,11.15
2019-05-28T20:30:14.778Z,10.28
2019-05-28T20:32:43.497Z,9.55
2019-05-28T20:35:12.505Z,9.05
2019-05-28T20:37:41.170Z,10.08
2019-05-28T20:40:11.930Z,13.05
2019-05-28T20:42:40.979Z,10.30
2019-05-28T20:45:12.127Z,9.03
2019-05-28T20:47:40.931Z,10.78
2019-05-28T20:50:11.758Z,10.05
2019-05-28T20:52:40.689Z,10.28
2019-05-28T20:55:10.559Z,9.33
2019-05-28T20:57:39.249Z,8.73
2019-05-28T21:00:09.003Z,10.08
2019-05-28T21:02:37.663Z,8.55
2019-05-28T21:05:07.858Z,9.95
2019-05-28T21:07:36.431Z,9.43
2019-05-28T21:10:08.888Z,12.47
2019-05-28T21:12:43.766Z,9.33
2019-05-28T21:15:08.681Z,9.95
2019-05-28T21:17:37.344Z,10.05
2019-05-28T21:20:11.178Z,10.05
2019-05-28T21:22:39.825Z,9.98
2019-05-28T21:25:09.075Z,9.40
2019-05-28T21:27:37.541Z,9.35
2019-05-28T21:30:07.758Z,11.03
2019-05-28T21:32:36.461Z,9.00
2019-05-28T21:35:06.688Z,9.85
2019-05-28T21:37:35.330Z,13.70
2019-05-28T21:40:05.210Z,11.53
2019-05-28T21:42:33.915Z,9.53
2019-05-28T21:45:02.674Z,11.57
2019-05-28T21:47:31.339Z,10.90
2019-05-28T21:50:01.038Z,10.13
2019-05-28T21:52:30.515Z,9.25
2019-05-28T21:54:59.315Z,10.10
2019-05-28T21:57:27.946Z,9.68
2019-05-28T21:59:56.540Z,10.35
2019-05-28T22:02:25.307Z,9.85
2019-05-28T22:04:55.227Z,11.22
2019-05-28T22:07:23.955Z,9.70
2019-05-28T22:09:52.791Z,9.95
2019-05-28T22:12:21.486Z,9.93
2019-05-28T22:14:50.142Z,10.28
2019-05-28T22:17:18.964Z,11.75
2019-05-28T22:19:47.617Z,8.98
2019-05-28T22:22:16.262Z,10.30
2019-05-28T22:24:44.915Z,10.50
2019-05-28T22:27:13.569Z,9.68
2019-05-28T22:29:42.257Z,9.80
2019-05-28T22:32:11.181Z,10.13
2019-05-28T22:34:39.786Z,10.85
2019-05-28T22:37:08.740Z,9.08
2019-05-28T22:39:37.445Z,11.08
2019-05-28T22:42:07.861Z,9.43
2019-05-28T22:44:36.716Z,9.23
2019-05-28T22:47:05.483Z,11.45
2019-05-28T22:49:34.246Z,8.88
2019-05-28T22:52:03.901Z,9.65
2019-05-28T22:54:32.549Z,9.20
2019-05-28T22:57:03.412Z,10.45
2019-05-28T22:59:31.607Z,10.23
2019-05-28T23:02:00.894Z,9.10
2019-05-28T23:04:29.566Z,10.72
2019-05-28T23:06:59.488Z,10.30
2019-05-28T23:09:29.037Z,9.10
2019-05-28T23:11:57.919Z,11.20
2019-05-28T23:14:26.628Z,12.70
2019-05-28T23:16:55.305Z,10.00
2019-05-28T23:19:23.966Z,10.10
2019-05-28T23:21:52.647Z,10.30
2019-05-28T23:24:21.362Z,9.58
2019-05-28T23:26:50.023Z,11.45
2019-05-28T23:29:18.594Z,10.65
2019-05-28T23:31:47.556Z,10.80
2019-05-28T23:34:16.374Z,10.38
2019-05-28T23:36:44.977Z,10.58
2019-05-28T23:39:13.657Z,9.73
2019-05-28T23:41:42.311Z,9.60
2019-05-28T23:44:11.681Z,10.25
2019-05-28T23:46:40.640Z,10.58
2019-05-28T23:49:10.184Z,10.05
2019-05-28T23:51:38.834Z,12.33
2019-05-28T23:54:07.692Z,10.23
2019-05-28T23:56:36.674Z,10.78
2019-05-28T23:59:05.673Z,10.40
